createdAt,value
2019-01-18T00:02:25.919Z,96212.41
2019-01-18T00:04:57.686Z,96209.92
2019-01-18T00:07:29.623Z,96211.23
2019-01-18T00:10:01.534Z,96212.28
2019-01-18T00:12:34.469Z,96211.83
2019-01-18T00:15:08.000Z,96219.48
2019-01-18T00:17:39.854Z,96219.69
2019-01-18T00:20:12.197Z,96221.06
2019-01-18T00:22:44.118Z,96215.34
2019-01-18T00:25:16.039Z,96225.43
2019-01-18T00:27:47.962Z,96224.91
2019-01-18T00:30:19.868Z,96222.84
2019-01-18T00:32:51.980Z,96226.36
2019-01-18T00:35:23.977Z,96227.68
2019-01-18T00:37:55.822Z,96222.51
2019-01-18T00:40:27.724Z,96229.00
2019-01-18T00:42:59.518Z,96236.90
2019-01-18T00:45:31.288Z,96237.49
2019-01-18T00:48:03.141Z,96242.44
2019-01-18T00:50:34.905Z,96234.05
2019-01-18T00:53:06.805Z,96238.50
2019-01-18T00:55:38.783Z,96246.70
2019-01-18T00:58:10.633Z,96240.36
2019-01-18T01:00:42.534Z,96251.84
2019-01-18T01:03:14.393Z,96249.62
2019-01-18T01:05:46.319Z,96251.48
2019-01-18T01:08:18.315Z,96258.17
2019-01-18T01:10:50.309Z,96261.45
2019-01-18T01:13:22.238Z,96255.92
2019-01-18T01:15:54.397Z,96262.84
2019-01-18T01:18:26.329Z,96259.41
2019-01-18T01:20:58.490Z,96262.69
2019-01-18T01:23:30.331Z,96271.97
2019-01-18T01:26:02.343Z,96269.22
2019-01-18T01:28:34.258Z,96277.75
2019-01-18T01:31:06.162Z,96279.34
2019-01-18T01:33:38.120Z,96280.66
2019-01-18T01:36:10.033Z,96283.68
2019-01-18T01:38:41.957Z,96285.54
2019-01-18T01:41:13.716Z,96292.23
2019-01-18T01:43:45.631Z,96296.16
2019-01-18T01:46:17.396Z,96303.75
2019-01-18T01:48:49.231Z,96300.73
2019-01-18T01:51:21.059Z,96309.06
2019-01-18T01:53:52.909Z,96302.66
2019-01-18T01:56:24.648Z,96302.89
2019-01-18T01:58:56.427Z,96308.12
2019-01-18T02:01:28.276Z,96308.86
2019-01-18T02:04:00.211Z,96306.41
2019-01-18T02:06:32.317Z,96307.53
2019-01-18T02:09:04.913Z,96312.31
2019-01-18T02:11:37.103Z,96320.59
2019-01-18T02:14:09.968Z,96321.00
2019-01-18T02:16:42.054Z,96323.84
2019-01-18T02:19:13.897Z,96321.50
2019-01-18T02:21:45.789Z,96324.98
2019-01-18T02:24:17.697Z,96327.50
2019-01-18T02:26:49.873Z,96340.63
2019-01-18T02:29:21.641Z,96333.83
2019-01-18T02:31:53.816Z,96348.41
2019-01-18T02:34:25.661Z,96351.88
2019-01-18T02:36:57.559Z,96349.45
2019-01-18T02:39:29.510Z,96350.80
2019-01-18T02:42:01.674Z,96347.85
2019-01-18T02:44:33.782Z,96351.88
2019-01-18T02:47:05.810Z,96349.65
2019-01-18T02:49:37.945Z,96356.67
2019-01-18T02:52:10.355Z,96363.57
2019-01-18T02:54:42.267Z,96366.94
2019-01-18T02:57:14.019Z,96370.54
2019-01-18T02:59:45.806Z,96372.66
2019-01-18T03:02:17.571Z,96374.38
2019-01-18T03:04:49.492Z,96378.16
2019-01-18T03:07:21.414Z,96379.50
2019-01-18T03:09:53.400Z,96387.58
2019-01-18T03:12:25.297Z,96376.31
2019-01-18T03:14:57.210Z,96382.55
2019-01-18T03:17:29.104Z,96386.02
2019-01-18T03:20:01.190Z,96391.14
2019-01-18T03:22:33.090Z,96389.53
2019-01-18T03:25:06.055Z,96399.27
2019-01-18T03:27:37.953Z,96391.45
2019-01-18T03:30:18.688Z,96397.78
2019-01-18T03:32:47.943Z,96404.70
2019-01-18T03:35:22.012Z,96410.08
2019-01-18T03:37:54.875Z,96413.76
2019-01-18T03:40:26.811Z,96426.42
2019-01-18T03:42:58.719Z,96429.75
2019-01-18T03:45:30.643Z,96427.16
2019-01-18T03:48:02.383Z,96432.02
2019-01-18T03:50:34.669Z,96434.55
2019-01-18T03:53:06.660Z,96440.84
2019-01-18T03:55:38.488Z,96452.84
2019-01-18T03:58:10.460Z,96446.02
2019-01-18T04:00:42.310Z,96453.99
2019-01-18T04:03:14.228Z,96458.47
2019-01-18T04:05:46.134Z,96457.05
2019-01-18T04:08:18.302Z,96462.01
2019-01-18T04:10:50.139Z,96465.08
2019-01-18T04:13:22.028Z,96469.88
2019-01-18T04:15:53.914Z,96473.58
2019-01-18T04:18:25.879Z,96475.52
2019-01-18T04:20:57.785Z,96485.09
2019-01-18T04:23:29.997Z,96485.03
2019-01-18T04:26:02.021Z,96484.25
2019-01-18T04:28:33.988Z,96475.98
2019-01-18T04:31:06.049Z,96483.80
2019-01-18T04:33:38.087Z,96478.34
2019-01-18T04:36:10.071Z,96486.87
2019-01-18T04:38:42.086Z,96486.84
2019-01-18T04:41:14.489Z,96485.53
2019-01-18T04:43:46.355Z,96488.27
2019-01-18T04:46:18.277Z,96487.28
2019-01-18T04:48:50.371Z,96495.44
2019-01-18T04:51:22.284Z,96504.42
2019-01-18T04:53:54.283Z,96504.05
2019-01-18T04:56:26.316Z,96512.55
2019-01-18T04:58:58.423Z,96507.02
2019-01-18T05:01:30.672Z,96512.92
2019-01-18T05:04:02.729Z,96516.80
2019-01-18T05:06:34.778Z,96514.03
2019-01-18T05:09:08.456Z,96525.36
2019-01-18T05:11:40.301Z,96521.58
2019-01-18T05:14:12.207Z,96530.70
2019-01-18T05:16:44.249Z,96533.98
2019-01-18T05:19:16.071Z,96540.38
2019-01-18T05:21:47.917Z,96544.56
2019-01-18T05:24:19.819Z,96545.86
2019-01-18T05:26:51.618Z,96546.16
2019-01-18T05:29:23.455Z,96546.63
2019-01-18T05:31:55.328Z,96557.03
2019-01-18T05:34:27.247Z,96561.54
2019-01-18T05:36:59.097Z,96566.80
2019-01-18T05:39:31.123Z,96573.14
2019-01-18T05:42:02.970Z,96578.96
2019-01-18T05:44:34.736Z,96584.23
2019-01-18T05:47:06.906Z,96582.48
2019-01-18T05:49:38.741Z,96586.89
2019-01-18T05:52:10.734Z,96588.73
2019-01-18T05:54:42.548Z,96591.50
2019-01-18T05:57:14.383Z,96597.20
2019-01-18T05:59:46.260Z,96598.03
2019-01-18T06:02:18.187Z,96603.79
2019-01-18T06:04:51.155Z,96608.14
2019-01-18T06:07:23.000Z,96614.93
2019-01-18T06:09:54.832Z,96619.64
2019-01-18T06:12:26.677Z,96628.98
2019-01-18T06:14:58.517Z,96628.07
2019-01-18T06:17:30.542Z,96635.37
2019-01-18T06:20:06.466Z,96636.66
2019-01-18T06:22:38.226Z,96643.77
2019-01-18T06:25:10.167Z,96646.36
2019-01-18T06:27:42.062Z,96645.89
2019-01-18T06:30:16.172Z,96648.55
2019-01-18T06:32:49.058Z,96660.23
2019-01-18T06:35:31.498Z,96661.48
2019-01-18T06:38:03.586Z,96662.30
2019-01-18T06:40:35.803Z,96669.06
2019-01-18T06:43:07.646Z,96673.48
2019-01-18T06:45:39.982Z,96677.30
2019-01-18T06:48:13.555Z,96679.88
2019-01-18T06:50:45.316Z,96677.20
2019-01-18T06:53:17.574Z,96683.11
2019-01-18T06:55:49.481Z,96687.45
2019-01-18T06:58:21.415Z,96690.22
2019-01-18T07:00:53.323Z,96696.88
2019-01-18T07:03:25.483Z,96695.68
2019-01-18T07:05:57.423Z,96705.27
2019-01-18T07:08:29.276Z,96702.69
2019-01-18T07:11:01.184Z,96710.81
2019-01-18T07:13:33.280Z,96721.07
2019-01-18T07:16:05.115Z,96719.48
2019-01-18T07:18:37.018Z,96726.70
2019-01-18T07:21:10.072Z,96725.20
2019-01-18T07:23:42.012Z,96731.41
2019-01-18T07:26:14.110Z,96735.84
2019-01-18T07:28:46.138Z,96734.83
2019-01-18T07:31:17.979Z,96741.30
2019-01-18T07:33:50.084Z,96738.59
2019-01-18T07:36:21.994Z,96750.72
2019-01-18T07:39:00.382Z,96752.01
2019-01-18T07:41:27.611Z,96757.35
2019-01-18T07:43:59.456Z,96753.27
2019-01-18T07:46:31.402Z,96756.98
2019-01-18T07:49:03.522Z,96762.06
2019-01-18T07:51:35.484Z,96769.53
2019-01-18T07:54:07.359Z,96774.33
2019-01-18T07:56:39.281Z,96776.55
2019-01-18T07:59:11.206Z,96773.41
2019-01-18T08:01:43.057Z,96774.87
2019-01-18T08:04:14.823Z,96777.08
2019-01-18T08:06:46.810Z,96786.72
2019-01-18T08:09:18.986Z,96791.14
2019-01-18T08:11:51.017Z,96793.81
2019-01-18T08:14:22.857Z,96799.27
2019-01-18T08:16:54.706Z,96798.90
2019-01-18T08:19:26.555Z,96803.91
2019-01-18T08:21:58.928Z,96807.87
2019-01-18T08:24:30.836Z,96810.91
2019-01-18T08:27:03.514Z,96806.84
2019-01-18T08:29:35.426Z,96816.47
2019-01-18T08:32:07.329Z,96809.80
2019-01-18T08:34:39.331Z,96818.39
2019-01-18T08:37:11.175Z,96817.67
2019-01-18T08:39:43.055Z,96820.89
2019-01-18T08:42:14.972Z,96821.27
2019-01-18T08:44:46.808Z,96828.81
2019-01-18T08:47:18.725Z,96819.47
2019-01-18T08:49:50.828Z,96824.19
2019-01-18T08:52:22.669Z,96820.30
2019-01-18T08:54:54.579Z,96825.14
2019-01-18T08:57:26.426Z,96826.98
2019-01-18T08:59:58.196Z,96829.20
2019-01-18T09:02:30.039Z,96840.30
2019-01-18T09:05:01.888Z,96835.12
2019-01-18T09:07:33.998Z,96843.05
2019-01-18T09:10:08.092Z,96839.38
2019-01-18T09:12:41.428Z,96841.12
2019-01-18T09:15:13.872Z,96848.80
2019-01-18T09:17:45.771Z,96848.42
2019-01-18T09:20:20.986Z,96850.64
2019-01-18T09:22:52.976Z,96861.74
2019-01-18T09:25:24.974Z,96858.32
2019-01-18T09:27:56.973Z,96861.83
2019-01-18T09:30:33.327Z,96867.08
2019-01-18T09:33:08.377Z,96860.62
2019-01-18T09:35:41.426Z,96866.91
2019-01-18T09:38:17.940Z,96865.88
2019-01-18T09:40:49.679Z,96864.67
2019-01-18T09:43:21.442Z,96870.41
2019-01-18T09:45:53.361Z,96875.37
2019-01-18T09:48:25.182Z,96879.09
2019-01-18T09:50:57.025Z,96879.83
2019-01-18T09:53:29.035Z,96881.70
2019-01-18T09:56:00.875Z,96876.32
2019-01-18T09:58:32.771Z,96873.47
2019-01-18T10:01:04.786Z,96872.81
2019-01-18T10:03:36.702Z,96875.95
2019-01-18T10:06:09.701Z,96877.98
2019-01-18T10:08:41.501Z,96873.55
2019-01-18T10:11:13.315Z,96874.84
2019-01-18T10:13:45.212Z,96878.53
2019-01-18T10:16:17.174Z,96877.98
2019-01-18T10:18:49.008Z,96883.78
2019-01-18T10:21:20.912Z,96879.27
2019-01-18T10:23:52.731Z,96882.48
2019-01-18T10:26:24.481Z,96878.26
2019-01-18T10:28:56.624Z,96879.02
2019-01-18T10:31:28.459Z,96878.48
2019-01-18T10:34:00.276Z,96890.14
2019-01-18T10:36:32.244Z,96894.52
2019-01-18T10:39:06.511Z,96885.35
2019-01-18T10:41:38.390Z,96886.63
2019-01-18T10:44:10.281Z,96894.13
2019-01-18T10:46:42.170Z,96891.07
2019-01-18T10:49:13.904Z,96892.13
2019-01-18T10:51:45.662Z,96890.52
2019-01-18T10:54:17.480Z,96898.77
2019-01-18T10:56:49.233Z,96889.70
2019-01-18T10:59:20.975Z,96885.35
2019-01-18T11:01:52.815Z,96890.22
2019-01-18T11:04:24.626Z,96888.44
2019-01-18T11:06:56.371Z,96897.33
2019-01-18T11:09:28.355Z,96889.75
2019-01-18T11:12:00.191Z,96887.72
2019-01-18T11:14:32.000Z,96886.95
2019-01-18T11:17:04.016Z,96886.90
2019-01-18T11:19:35.914Z,96886.21
2019-01-18T11:22:07.833Z,96878.81
2019-01-18T11:24:39.640Z,96866.13
2019-01-18T11:27:11.732Z,96875.87
2019-01-18T11:29:43.471Z,96862.52
2019-01-18T11:32:15.637Z,96862.64
2019-01-18T11:34:47.514Z,96863.51
2019-01-18T11:37:19.491Z,96860.22
2019-01-18T11:39:51.301Z,96865.81
2019-01-18T11:42:23.124Z,96861.08
2019-01-18T11:44:54.941Z,96863.00
2019-01-18T11:47:28.386Z,96859.07
2019-01-18T11:50:00.362Z,96860.89
2019-01-18T11:52:32.253Z,96857.92
2019-01-18T11:55:04.069Z,96858.34
2019-01-18T11:57:35.877Z,96864.14
2019-01-18T12:00:12.729Z,96857.09
2019-01-18T12:02:44.528Z,96854.03
2019-01-18T12:05:17.062Z,96856.57
2019-01-18T12:07:49.179Z,96861.02
2019-01-18T12:10:24.338Z,96855.03
2019-01-18T12:12:56.108Z,96857.50
2019-01-18T12:15:28.398Z,96857.56
2019-01-18T12:18:00.235Z,96852.71
2019-01-18T12:20:35.294Z,96848.67
2019-01-18T12:23:07.934Z,96847.16
2019-01-18T12:25:39.825Z,96844.49
2019-01-18T12:28:11.834Z,96837.97
2019-01-18T12:30:43.803Z,96842.68
2019-01-18T12:33:15.713Z,96845.01
2019-01-18T12:35:47.599Z,96844.16
2019-01-18T12:38:19.683Z,96834.94
2019-01-18T12:40:51.869Z,96832.31
2019-01-18T12:43:23.788Z,96834.94
2019-01-18T12:45:55.613Z,96836.19
2019-01-18T12:48:27.512Z,96840.48
2019-01-18T12:50:59.402Z,96838.48
2019-01-18T12:53:31.230Z,96846.25
2019-01-18T12:56:02.989Z,96852.92
2019-01-18T12:58:34.893Z,96849.85
2019-01-18T13:01:06.963Z,96853.91
2019-01-18T13:03:38.813Z,96850.51
2019-01-18T13:06:10.699Z,96846.34
2019-01-18T13:08:42.455Z,96854.00
2019-01-18T13:11:15.325Z,96848.50
2019-01-18T13:13:47.170Z,96847.95
2019-01-18T13:16:36.318Z,96850.53
2019-01-18T13:19:20.263Z,96845.73
2019-01-18T13:21:52.166Z,96842.53
2019-01-18T13:24:23.993Z,96838.08
2019-01-18T13:26:55.883Z,96827.70
2019-01-18T13:29:27.780Z,96832.94
2019-01-18T13:31:59.867Z,96838.17
2019-01-18T13:34:31.769Z,96838.40
2019-01-18T13:37:03.655Z,96835.34
2019-01-18T13:39:35.516Z,96832.41
2019-01-18T13:42:07.509Z,96831.61
2019-01-18T13:44:43.512Z,96837.07
2019-01-18T13:47:18.278Z,96840.28
2019-01-18T13:49:46.612Z,96841.41
2019-01-18T13:52:18.529Z,96841.19
2019-01-18T13:54:50.339Z,96845.36
2019-01-18T13:57:22.229Z,96853.02
2019-01-18T13:59:54.134Z,96859.38
2019-01-18T14:02:25.945Z,96863.06
2019-01-18T14:04:57.681Z,96866.88
2019-01-18T14:07:29.559Z,96866.48
2019-01-18T14:10:01.458Z,96868.56
2019-01-18T14:12:33.332Z,96867.89
2019-01-18T14:15:05.837Z,96870.52
2019-01-18T14:17:37.668Z,96866.40
2019-01-18T14:20:13.150Z,96864.80
2019-01-18T14:22:45.117Z,96860.37
2019-01-18T14:25:17.102Z,96861.59
2019-01-18T14:27:49.065Z,96860.62
2019-01-18T14:30:25.687Z,96855.53
2019-01-18T14:32:57.829Z,96860.53
2019-01-18T14:35:29.897Z,96861.21
2019-01-18T14:38:02.070Z,96859.32
2019-01-18T14:40:33.988Z,96857.03
2019-01-18T14:43:05.888Z,96859.58
2019-01-18T14:45:40.931Z,96859.57
2019-01-18T14:48:12.847Z,96866.14
2019-01-18T14:50:44.829Z,96869.11
2019-01-18T14:53:16.741Z,96875.14
2019-01-18T14:55:48.842Z,96875.81
2019-01-18T14:58:24.571Z,96880.27
2019-01-18T15:00:54.354Z,96880.91
2019-01-18T15:03:26.334Z,96873.69
2019-01-18T15:05:58.162Z,96873.09
2019-01-18T15:08:30.001Z,96871.63
2019-01-18T15:11:01.741Z,96880.08
2019-01-18T15:13:33.680Z,96867.75
2019-01-18T15:16:06.081Z,96864.53
2019-01-18T15:18:38.992Z,96868.94
2019-01-18T15:21:10.825Z,96871.25
2019-01-18T15:23:42.655Z,96874.85
2019-01-18T15:26:18.416Z,96873.02
2019-01-18T15:28:48.273Z,96872.97
2019-01-18T15:31:20.096Z,96875.28
2019-01-18T15:33:51.930Z,96871.38
2019-01-18T15:36:23.826Z,96868.20
2019-01-18T15:38:56.009Z,96867.04
2019-01-18T15:41:27.975Z,96870.88
2019-01-18T15:43:59.829Z,96876.67
2019-01-18T15:46:31.667Z,96875.47
2019-01-18T15:49:03.509Z,96877.36
2019-01-18T15:51:35.417Z,96881.33
2019-01-18T15:54:07.257Z,96882.72
2019-01-18T15:56:39.432Z,96882.63
2019-01-18T15:59:11.336Z,96889.07
2019-01-18T16:01:43.179Z,96888.14
2019-01-18T16:04:14.939Z,96890.19
2019-01-18T16:06:46.761Z,96891.78
2019-01-18T16:09:18.589Z,96893.08
2019-01-18T16:11:50.327Z,96897.17
2019-01-18T16:14:22.159Z,96901.27
2019-01-18T16:17:00.975Z,96890.50
2019-01-18T16:19:32.798Z,96890.90
2019-01-18T16:22:04.693Z,96892.03
2019-01-18T16:24:36.541Z,96900.18
2019-01-18T16:27:09.373Z,96895.02
2019-01-18T16:29:41.269Z,96892.84
2019-01-18T16:32:13.482Z,96889.83
2019-01-18T16:34:45.371Z,96889.94
2019-01-18T16:37:17.275Z,96898.84
2019-01-18T16:39:49.109Z,96893.38
2019-01-18T16:42:22.499Z,96895.12
2019-01-18T16:44:54.650Z,96897.56
2019-01-18T16:47:26.497Z,96891.75
2019-01-18T16:49:58.274Z,96884.37
2019-01-18T16:52:30.175Z,96886.50
2019-01-18T16:55:02.092Z,96881.48
2019-01-18T16:57:33.909Z,96880.74
2019-01-18T17:00:14.032Z,96884.70
2019-01-18T17:02:46.190Z,96885.36
2019-01-18T17:05:18.191Z,96889.25
2019-01-18T17:07:49.939Z,96884.45
2019-01-18T17:10:22.058Z,96890.18
2019-01-18T17:12:54.052Z,96891.39
2019-01-18T17:15:25.823Z,96887.59
2019-01-18T17:17:57.635Z,96891.58
2019-01-18T17:20:32.972Z,96891.28
2019-01-18T17:23:04.877Z,96891.03
2019-01-18T17:25:37.276Z,96885.94
2019-01-18T17:28:10.116Z,96887.97
2019-01-18T17:30:42.028Z,96895.14
2019-01-18T17:33:14.172Z,96892.46
2019-01-18T17:36:32.962Z,96891.83
2019-01-18T17:39:39.014Z,96890.81
2019-01-18T17:42:58.962Z,96892.41
2019-01-18T17:45:59.538Z,96890.86
2019-01-18T17:49:12.730Z,96891.13
2019-01-18T17:52:32.772Z,96894.84
2019-01-18T17:56:00.263Z,96897.34
2019-01-18T17:59:41.184Z,96902.67
2019-01-18T18:03:10.673Z,96901.00
2019-01-18T18:06:30.490Z,96905.99
2019-01-18T18:09:42.086Z,96906.47
2019-01-18T18:13:01.454Z,96901.17
2019-01-18T18:16:15.863Z,96907.72
2019-01-18T18:19:43.925Z,96899.86
2019-01-18T18:22:56.772Z,96908.13
2019-01-18T18:26:23.112Z,96900.31
2019-01-18T18:29:51.025Z,96893.02
2019-01-18T18:33:11.580Z,96904.38
2019-01-18T18:36:18.434Z,96901.23
2019-01-18T18:39:34.435Z,96899.83
2019-01-18T18:43:18.914Z,96895.41
2019-01-18T18:47:07.576Z,96896.94
2019-01-18T18:50:35.870Z,96903.20
2019-01-18T18:54:14.158Z,96898.37
2019-01-18T18:58:01.668Z,96891.35
2019-01-18T19:01:40.270Z,96891.35
2019-01-18T19:04:53.993Z,96888.84
2019-01-18T19:08:29.084Z,96883.23
2019-01-18T19:11:33.652Z,96875.63
2019-01-18T19:14:48.662Z,96880.53
2019-01-18T19:18:10.277Z,96871.95
2019-01-18T19:21:48.204Z,96868.34
2019-01-18T19:25:08.203Z,96869.10
2019-01-18T19:28:43.094Z,96862.19
2019-01-18T19:32:33.564Z,96859.34
2019-01-18T19:36:08.862Z,96859.30
2019-01-18T19:39:28.615Z,96854.94
2019-01-18T19:42:42.845Z,96856.05
2019-01-18T19:45:52.902Z,96856.40
2019-01-18T19:49:30.702Z,96855.38
2019-01-18T19:52:44.699Z,96851.42
2019-01-18T19:56:00.536Z,96846.59
2019-01-18T19:59:14.318Z,96852.38
2019-01-18T20:02:54.314Z,96846.84
2019-01-18T20:06:12.517Z,96843.20
2019-01-18T20:09:40.724Z,96847.61
2019-01-18T20:13:14.039Z,96850.30
2019-01-18T20:19:53.951Z,96845.39
2019-01-18T20:23:06.255Z,96847.64
2019-01-18T20:26:03.154Z,96844.64
2019-01-18T20:29:35.324Z,96842.38
2019-01-18T20:33:09.069Z,96840.85
2019-01-18T20:36:10.139Z,96843.17
2019-01-18T20:39:43.633Z,96845.18
2019-01-18T20:43:03.680Z,96836.94
2019-01-18T20:46:22.175Z,96846.16
2019-01-18T20:49:53.573Z,96849.88
2019-01-18T20:53:06.602Z,96852.41
2019-01-18T20:56:19.400Z,96851.01
2019-01-18T20:59:27.225Z,96848.75
2019-01-18T21:02:52.421Z,96846.16
2019-01-18T21:05:37.439Z,96845.30
2019-01-18T21:08:37.759Z,96842.33
2019-01-18T21:11:34.472Z,96838.57
2019-01-18T21:14:59.933Z,96834.89
2019-01-18T21:18:44.711Z,96833.55
2019-01-18T21:22:07.109Z,96829.72
2019-01-18T21:25:29.066Z,96827.89
2019-01-18T21:29:13.829Z,96822.89
2019-01-18T21:32:10.455Z,96825.28
2019-01-18T21:35:26.115Z,96824.48
2019-01-18T21:38:45.477Z,96820.25
2019-01-18T21:42:17.247Z,96821.17
2019-01-18T21:45:36.053Z,96824.81
2019-01-18T21:49:05.817Z,96820.53
2019-01-18T21:52:24.602Z,96821.22
2019-01-18T21:55:30.796Z,96823.72
2019-01-18T21:58:42.293Z,96824.94
2019-01-18T22:01:59.685Z,96823.91
2019-01-18T22:05:33.510Z,96823.39
2019-01-18T22:08:45.155Z,96826.96
2019-01-18T22:12:22.110Z,96828.86
2019-01-18T22:16:20.989Z,96829.80
2019-01-18T22:20:22.022Z,96831.92
2019-01-18T22:23:14.962Z,96837.25
2019-01-18T22:26:41.861Z,96841.05
2019-01-18T22:30:06.373Z,96835.16
2019-01-18T22:33:30.033Z,96836.78
2019-01-18T22:37:00.703Z,96849.47
2019-01-18T22:40:29.998Z,96848.78
2019-01-18T22:43:31.760Z,96837.44
2019-01-18T22:47:05.190Z,96841.84
2019-01-18T22:50:00.355Z,96839.52
2019-01-18T22:53:25.669Z,96837.65
2019-01-18T22:56:38.095Z,96837.92
2019-01-18T23:00:00.309Z,96841.09
2019-01-18T23:03:17.619Z,96836.19
2019-01-18T23:06:43.560Z,96841.79
2019-01-18T23:09:52.067Z,96835.55
2019-01-18T23:13:34.252Z,96841.39
2019-01-18T23:17:05.644Z,96839.43
2019-01-18T23:20:29.380Z,96833.03
2019-01-18T23:23:57.917Z,96830.45
2019-01-18T23:27:21.083Z,96826.20
2019-01-18T23:30:27.861Z,96818.34
2019-01-18T23:33:26.955Z,96813.20
2019-01-18T23:36:44.772Z,96820.72
2019-01-18T23:39:53.399Z,96812.75
2019-01-18T23:43:00.195Z,96814.14
2019-01-18T23:46:14.033Z,96816.28
2019-01-18T23:49:12.137Z,96807.78
2019-01-18T23:53:05.173Z,96809.77
2019-01-18T23:56:41.664Z,96803.12
